sensor_id;sensor_type;location;lat;lon;timestamp;temperature;humidity
5304;DHT22;2674;49.722;10.892;2024-03-17T00:00:24;5.30;99.90
5304;DHT22;2674;49.722;10.892;2024-03-17T00:02:50;5.20;99.90
5304;DHT22;2674;49.722;10.892;2024-03-17T00:05:16;5.20;99.90
5304;DHT22;2674;49.722;10.892;2024-03-17T00:07:44;5.20;99.90
5304;DHT22;2674;49.722;10.892;2024-03-17T00:10:10;5.10;99.90
5304;DHT22;2674;49.722;10.892;2024-03-17T00:12:36;5.00;99.90
5304;DHT22;2674;49.722;10.892;2024-03-17T00:15:03;5.00;99.90
5304;DHT22;2674;49.722;10.892;2024-03-17T00:17:29;4.90;99.90
5304;DHT22;2674;49.722;10.892;2024-03-17T00:19:55;4.90;99.90
5304;DHT22;2674;49.722;10.892;2024-03-17T00:22:21;4.90;99.90
5304;DHT22;2674;49.722;10.892;2024-03-17T00:24:46;4.80;99.90
5304;DHT22;2674;49.722;10.892;2024-03-17T00:27:12;4.80;99.90
5304;DHT22;2674;49.722;10.892;2024-03-17T00:29:39;4.70;99.90
5304;DHT22;2674;49.722;10.892;2024-03-17T00:32:05;4.70;99.90
5304;DHT22;2674;49.722;10.892;2024-03-17T00:34:32;4.70;99.90
5304;DHT22;2674;49.722;10.892;2024-03-17T00:36:58;4.70;99.90
5304;DHT22;2674;49.722;10.892;2024-03-17T00:39:25;4.70;99.90
5304;DHT22;2674;49.722;10.892;2024-03-17T00:41:51;4.80;99.90
5304;DHT22;2674;49.722;10.892;2024-03-17T00:44:16;4.80;99.90
5304;DHT22;2674;49.722;10.892;2024-03-17T00:46:42;4.80;99.90
5304;DHT22;2674;49.722;10.892;2024-03-17T00:49:12;4.90;99.90
5304;DHT22;2674;49.722;10.892;2024-03-17T00:51:38;4.90;99.90
5304;DHT22;2674;49.722;10.892;2024-03-17T00:54:04;4.90;99.90
5304;DHT22;2674;49.722;10.892;2024-03-17T00:56:30;4.90;99.90
5304;DHT22;2674;49.722;10.892;2024-03-17T00:58:56;4.90;99.90
5304;DHT22;2674;49.722;10.892;2024-03-17T01:01:22;5.00;99.90
5304;DHT22;2674;49.722;10.892;2024-03-17T01:03:49;5.00;99.90
5304;DHT22;2674;49.722;10.892;2024-03-17T01:06:15;5.00;99.90
5304;DHT22;2674;49.722;10.892;2024-03-17T01:08:40;5.00;99.90
5304;DHT22;2674;49.722;10.892;2024-03-17T01:11:06;5.10;99.90
5304;DHT22;2674;49.722;10.892;2024-03-17T01:13:35;5.10;99.90
5304;DHT22;2674;49.722;10.892;2024-03-17T01:16:07;5.10;99.90
5304;DHT22;2674;49.722;10.892;2024-03-17T01:18:32;5.10;99.90
5304;DHT22;2674;49.722;10.892;2024-03-17T01:20:59;5.10;99.90
5304;DHT22;2674;49.722;10.892;2024-03-17T01:23:25;5.10;99.90
5304;DHT22;2674;49.722;10.892;2024-03-17T01:25:51;5.10;99.90
5304;DHT22;2674;49.722;10.892;2024-03-17T01:28:17;5.20;99.90
5304;DHT22;2674;49.722;10.892;2024-03-17T01:30:42;5.20;99.90
5304;DHT22;2674;49.722;10.892;2024-03-17T01:33:08;5.20;99.90
5304;DHT22;2674;49.722;10.892;2024-03-17T01:35:36;5.20;99.90
5304;DHT22;2674;49.722;10.892;2024-03-17T01:38:01;5.10;99.90
5304;DHT22;2674;49.722;10.892;2024-03-17T01:40:27;5.10;99.90
5304;DHT22;2674;49.722;10.892;2024-03-17T01:42:53;5.10;99.90
5304;DHT22;2674;49.722;10.892;2024-03-17T01:45:25;5.20;99.90
5304;DHT22;2674;49.722;10.892;2024-03-17T01:47:53;5.10;99.90
5304;DHT22;2674;49.722;10.892;2024-03-17T01:50:19;5.10;99.90
5304;DHT22;2674;49.722;10.892;2024-03-17T01:52:52;5.10;99.90
5304;DHT22;2674;49.722;10.892;2024-03-17T01:55:20;5.10;99.90
5304;DHT22;2674;49.722;10.892;2024-03-17T01:57:49;5.10;99.90
5304;DHT22;2674;49.722;10.892;2024-03-17T02:00:15;5.10;99.90
5304;DHT22;2674;49.722;10.892;2024-03-17T02:02:44;5.10;99.90
5304;DHT22;2674;49.722;10.892;2024-03-17T02:05:10;5.10;99.90
5304;DHT22;2674;49.722;10.892;2024-03-17T02:07:36;5.10;99.90
5304;DHT22;2674;49.722;10.892;2024-03-17T02:10:02;5.10;99.90
5304;DHT22;2674;49.722;10.892;2024-03-17T02:12:31;5.10;99.90
5304;DHT22;2674;49.722;10.892;2024-03-17T02:15:01;5.10;99.90
5304;DHT22;2674;49.722;10.892;2024-03-17T02:17:33;5.00;99.90
5304;DHT22;2674;49.722;10.892;2024-03-17T02:20:00;5.00;99.90
5304;DHT22;2674;49.722;10.892;2024-03-17T02:22:26;5.00;99.90
5304;DHT22;2674;49.722;10.892;2024-03-17T02:24:55;5.00;99.90
5304;DHT22;2674;49.722;10.892;2024-03-17T02:27:21;4.90;99.90
5304;DHT22;2674;49.722;10.892;2024-03-17T02:29:47;4.80;99.90
5304;DHT22;2674;49.722;10.892;2024-03-17T02:32:13;4.70;99.90
5304;DHT22;2674;49.722;10.892;2024-03-17T02:34:39;4.70;99.90
5304;DHT22;2674;49.722;10.892;2024-03-17T02:37:05;4.60;99.90
5304;DHT22;2674;49.722;10.892;2024-03-17T02:39:33;4.50;99.90
5304;DHT22;2674;49.722;10.892;2024-03-17T02:42:09;4.40;99.90
5304;DHT22;2674;49.722;10.892;2024-03-17T02:44:37;4.40;99.90
5304;DHT22;2674;49.722;10.892;2024-03-17T02:47:05;4.30;99.90
5304;DHT22;2674;49.722;10.892;2024-03-17T02:49:31;4.20;99.90
5304;DHT22;2674;49.722;10.892;2024-03-17T02:52:05;4.20;99.90
5304;DHT22;2674;49.722;10.892;2024-03-17T02:54:32;4.10;99.90
5304;DHT22;2674;49.722;10.892;2024-03-17T02:57:01;4.10;99.90
5304;DHT22;2674;49.722;10.892;2024-03-17T02:59:27;4.00;99.90
5304;DHT22;2674;49.722;10.892;2024-03-17T03:01:53;3.90;99.90
5304;DHT22;2674;49.722;10.892;2024-03-17T03:04:20;3.90;99.90
5304;DHT22;2674;49.722;10.892;2024-03-17T03:06:46;3.80;99.90
5304;DHT22;2674;49.722;10.892;2024-03-17T03:09:11;3.80;99.90
5304;DHT22;2674;49.722;10.892;2024-03-17T03:11:46;3.70;99.90
5304;DHT22;2674;49.722;10.892;2024-03-17T03:14:12;3.60;99.90
5304;DHT22;2674;49.722;10.892;2024-03-17T03:16:38;3.60;99.90
5304;DHT22;2674;49.722;10.892;2024-03-17T03:19:04;3.60;99.90
5304;DHT22;2674;49.722;10.892;2024-03-17T03:21:31;3.60;99.90
5304;DHT22;2674;49.722;10.892;2024-03-17T03:23:57;3.50;99.90
5304;DHT22;2674;49.722;10.892;2024-03-17T03:26:23;3.50;99.90
5304;DHT22;2674;49.722;10.892;2024-03-17T03:28:51;3.40;99.90
5304;DHT22;2674;49.722;10.892;2024-03-17T03:31:19;3.40;99.90
5304;DHT22;2674;49.722;10.892;2024-03-17T03:33:45;3.40;99.90
5304;DHT22;2674;49.722;10.892;2024-03-17T03:36:12;3.50;99.90
5304;DHT22;2674;49.722;10.892;2024-03-17T03:38:38;3.50;99.90
5304;DHT22;2674;49.722;10.892;2024-03-17T03:41:14;3.50;99.90
5304;DHT22;2674;49.722;10.892;2024-03-17T03:43:40;3.50;99.90
5304;DHT22;2674;49.722;10.892;2024-03-17T03:46:07;3.50;99.90
5304;DHT22;2674;49.722;10.892;2024-03-17T03:48:33;3.60;99.90
5304;DHT22;2674;49.722;10.892;2024-03-17T03:51:08;3.60;99.90
5304;DHT22;2674;49.722;10.892;2024-03-17T03:53:35;3.60;99.90
5304;DHT22;2674;49.722;10.892;2024-03-17T03:56:04;3.60;99.90
5304;DHT22;2674;49.722;10.892;2024-03-17T03:58:35;3.60;99.90
5304;DHT22;2674;49.722;10.892;2024-03-17T04:01:06;3.60;99.90
5304;DHT22;2674;49.722;10.892;2024-03-17T04:03:35;3.70;99.90
5304;DHT22;2674;49.722;10.892;2024-03-17T04:06:09;3.70;99.90
5304;DHT22;2674;49.722;10.892;2024-03-17T04:08:37;3.70;99.90
5304;DHT22;2674;49.722;10.892;2024-03-17T04:11:03;3.80;99.90
5304;DHT22;2674;49.722;10.892;2024-03-17T04:13:30;3.80;99.90
5304;DHT22;2674;49.722;10.892;2024-03-17T04:15:56;3.80;99.90
5304;DHT22;2674;49.722;10.892;2024-03-17T04:18:27;3.80;99.90
5304;DHT22;2674;49.722;10.892;2024-03-17T04:20:57;3.80;99.90
5304;DHT22;2674;49.722;10.892;2024-03-17T04:23:23;3.90;99.90
5304;DHT22;2674;49.722;10.892;2024-03-17T04:25:51;3.90;99.90
5304;DHT22;2674;49.722;10.892;2024-03-17T04:28:17;3.80;99.90
5304;DHT22;2674;49.722;10.892;2024-03-17T04:30:42;3.90;99.90
5304;DHT22;2674;49.722;10.892;2024-03-17T04:33:09;3.90;99.90
5304;DHT22;2674;49.722;10.892;2024-03-17T04:35:40;3.90;99.90
5304;DHT22;2674;49.722;10.892;2024-03-17T04:38:07;3.90;99.90
5304;DHT22;2674;49.722;10.892;2024-03-17T04:40:33;4.00;99.90
5304;DHT22;2674;49.722;10.892;2024-03-17T04:43:00;4.00;99.90
5304;DHT22;2674;49.722;10.892;2024-03-17T04:45:26;4.00;99.90
5304;DHT22;2674;49.722;10.892;2024-03-17T04:47:52;4.00;99.90
5304;DHT22;2674;49.722;10.892;2024-03-17T04:50:18;4.00;99.90
5304;DHT22;2674;49.722;10.892;2024-03-17T04:52:44;4.00;99.90
5304;DHT22;2674;49.722;10.892;2024-03-17T04:55:10;4.10;99.90
5304;DHT22;2674;49.722;10.892;2024-03-17T04:57:36;4.10;99.90
5304;DHT22;2674;49.722;10.892;2024-03-17T05:00:03;4.10;99.90
5304;DHT22;2674;49.722;10.892;2024-03-17T05:02:32;4.10;99.90
5304;DHT22;2674;49.722;10.892;2024-03-17T05:04:59;4.10;99.90
5304;DHT22;2674;49.722;10.892;2024-03-17T05:07:24;4.00;99.90
5304;DHT22;2674;49.722;10.892;2024-03-17T05:09:50;4.00;99.90
5304;DHT22;2674;49.722;10.892;2024-03-17T05:12:16;4.10;99.90
5304;DHT22;2674;49.722;10.892;2024-03-17T05:14:42;4.10;99.90
5304;DHT22;2674;49.722;10.892;2024-03-17T05:17:08;4.10;99.90
5304;DHT22;2674;49.722;10.892;2024-03-17T05:19:34;4.10;99.90
5304;DHT22;2674;49.722;10.892;2024-03-17T05:21:59;4.20;99.90
5304;DHT22;2674;49.722;10.892;2024-03-17T05:24:25;4.20;99.90
5304;DHT22;2674;49.722;10.892;2024-03-17T05:26:51;4.20;99.90
5304;DHT22;2674;49.722;10.892;2024-03-17T05:29:17;4.20;99.90
5304;DHT22;2674;49.722;10.892;2024-03-17T05:31:43;4.10;99.90
5304;DHT22;2674;49.722;10.892;2024-03-17T05:34:09;4.10;99.90
5304;DHT22;2674;49.722;10.892;2024-03-17T05:36:36;4.10;99.90
5304;DHT22;2674;49.722;10.892;2024-03-17T05:39:03;4.10;99.90
5304;DHT22;2674;49.722;10.892;2024-03-17T05:41:29;4.10;99.90
5304;DHT22;2674;49.722;10.892;2024-03-17T05:43:55;4.00;99.90
5304;DHT22;2674;49.722;10.892;2024-03-17T05:46:24;4.00;99.90
5304;DHT22;2674;49.722;10.892;2024-03-17T05:48:54;4.00;99.90
5304;DHT22;2674;49.722;10.892;2024-03-17T05:51:19;4.00;99.90
5304;DHT22;2674;49.722;10.892;2024-03-17T05:53:45;4.00;99.90
5304;DHT22;2674;49.722;10.892;2024-03-17T05:56:12;4.00;99.90
5304;DHT22;2674;49.722;10.892;2024-03-17T05:58:38;4.00;99.90
5304;DHT22;2674;49.722;10.892;2024-03-17T06:01:05;4.10;99.90
5304;DHT22;2674;49.722;10.892;2024-03-17T06:03:35;4.10;99.90
5304;DHT22;2674;49.722;10.892;2024-03-17T06:06:02;4.20;99.90
5304;DHT22;2674;49.722;10.892;2024-03-17T06:08:29;4.20;99.90
5304;DHT22;2674;49.722;10.892;2024-03-17T06:10:55;4.10;99.90
5304;DHT22;2674;49.722;10.892;2024-03-17T06:13:23;4.30;99.90
5304;DHT22;2674;49.722;10.892;2024-03-17T06:15:50;4.30;99.90
5304;DHT22;2674;49.722;10.892;2024-03-17T06:18:16;4.30;99.90
5304;DHT22;2674;49.722;10.892;2024-03-17T06:20:47;4.40;99.90
5304;DHT22;2674;49.722;10.892;2024-03-17T06:23:14;4.50;99.90
5304;DHT22;2674;49.722;10.892;2024-03-17T06:25:45;4.50;99.90
5304;DHT22;2674;49.722;10.892;2024-03-17T06:28:13;4.60;99.90
5304;DHT22;2674;49.722;10.892;2024-03-17T06:30:43;4.60;99.90
5304;DHT22;2674;49.722;10.892;2024-03-17T06:33:13;4.70;99.90
5304;DHT22;2674;49.722;10.892;2024-03-17T06:35:39;4.70;99.90
5304;DHT22;2674;49.722;10.892;2024-03-17T06:38:05;4.80;99.90
5304;DHT22;2674;49.722;10.892;2024-03-17T06:40:38;4.80;99.90
5304;DHT22;2674;49.722;10.892;2024-03-17T06:43:05;4.90;99.90
5304;DHT22;2674;49.722;10.892;2024-03-17T06:45:32;4.90;99.90
5304;DHT22;2674;49.722;10.892;2024-03-17T06:47:57;5.00;99.90
5304;DHT22;2674;49.722;10.892;2024-03-17T06:50:23;5.00;99.90
5304;DHT22;2674;49.722;10.892;2024-03-17T06:52:49;5.10;99.90
5304;DHT22;2674;49.722;10.892;2024-03-17T06:55:18;5.10;99.90
5304;DHT22;2674;49.722;10.892;2024-03-17T06:57:44;5.10;99.90
5304;DHT22;2674;49.722;10.892;2024-03-17T07:00:12;5.20;99.90
5304;DHT22;2674;49.722;10.892;2024-03-17T07:02:40;5.20;99.90
5304;DHT22;2674;49.722;10.892;2024-03-17T07:05:07;5.20;99.90
5304;DHT22;2674;49.722;10.892;2024-03-17T07:07:33;5.30;99.90
5304;DHT22;2674;49.722;10.892;2024-03-17T07:09:59;5.30;99.90
5304;DHT22;2674;49.722;10.892;2024-03-17T07:12:30;5.40;99.90
5304;DHT22;2674;49.722;10.892;2024-03-17T07:14:56;5.50;99.90
5304;DHT22;2674;49.722;10.892;2024-03-17T07:17:22;5.60;99.90
5304;DHT22;2674;49.722;10.892;2024-03-17T07:19:48;5.70;99.90
5304;DHT22;2674;49.722;10.892;2024-03-17T07:22:15;5.70;99.90
5304;DHT22;2674;49.722;10.892;2024-03-17T07:24:41;5.80;99.90
5304;DHT22;2674;49.722;10.892;2024-03-17T07:27:09;5.90;99.90
5304;DHT22;2674;49.722;10.892;2024-03-17T07:29:39;6.00;99.90
5304;DHT22;2674;49.722;10.892;2024-03-17T07:32:08;6.00;99.90
5304;DHT22;2674;49.722;10.892;2024-03-17T07:34:33;6.10;99.90
5304;DHT22;2674;49.722;10.892;2024-03-17T07:37:01;6.20;99.90
5304;DHT22;2674;49.722;10.892;2024-03-17T07:39:29;6.20;99.90
5304;DHT22;2674;49.722;10.892;2024-03-17T07:42:02;6.20;99.90
5304;DHT22;2674;49.722;10.892;2024-03-17T07:44:28;6.20;99.90
5304;DHT22;2674;49.722;10.892;2024-03-17T07:46:59;6.30;99.90
5304;DHT22;2674;49.722;10.892;2024-03-17T07:49:25;6.30;99.90
5304;DHT22;2674;49.722;10.892;2024-03-17T07:51:51;6.30;99.90
5304;DHT22;2674;49.722;10.892;2024-03-17T07:54:16;6.40;99.90
5304;DHT22;2674;49.722;10.892;2024-03-17T07:56:45;6.40;99.90
5304;DHT22;2674;49.722;10.892;2024-03-17T07:59:12;6.40;99.90
5304;DHT22;2674;49.722;10.892;2024-03-17T08:01:42;6.40;99.90
5304;DHT22;2674;49.722;10.892;2024-03-17T08:04:07;6.50;99.90
5304;DHT22;2674;49.722;10.892;2024-03-17T08:06:33;6.60;99.90
5304;DHT22;2674;49.722;10.892;2024-03-17T08:08:59;6.70;99.90
5304;DHT22;2674;49.722;10.892;2024-03-17T08:11:25;6.90;99.90
5304;DHT22;2674;49.722;10.892;2024-03-17T08:13:51;7.00;99.90
5304;DHT22;2674;49.722;10.892;2024-03-17T08:16:17;7.00;99.90
5304;DHT22;2674;49.722;10.892;2024-03-17T08:18:43;7.00;99.90
5304;DHT22;2674;49.722;10.892;2024-03-17T08:21:09;7.00;99.90
5304;DHT22;2674;49.722;10.892;2024-03-17T08:23:35;7.00;99.90
5304;DHT22;2674;49.722;10.892;2024-03-17T08:26:04;7.10;99.90
5304;DHT22;2674;49.722;10.892;2024-03-17T08:28:33;7.20;99.90
5304;DHT22;2674;49.722;10.892;2024-03-17T08:31:03;7.30;99.90
5304;DHT22;2674;49.722;10.892;2024-03-17T08:33:30;7.30;99.90
5304;DHT22;2674;49.722;10.892;2024-03-17T08:36:07;7.40;99.90
5304;DHT22;2674;49.722;10.892;2024-03-17T08:38:33;7.40;99.90
5304;DHT22;2674;49.722;10.892;2024-03-17T08:41:07;7.60;99.90
5304;DHT22;2674;49.722;10.892;2024-03-17T08:43:35;7.80;99.90
5304;DHT22;2674;49.722;10.892;2024-03-17T08:46:08;8.00;99.90
5304;DHT22;2674;49.722;10.892;2024-03-17T08:48:36;8.20;99.90
5304;DHT22;2674;49.722;10.892;2024-03-17T08:51:03;8.30;99.90
5304;DHT22;2674;49.722;10.892;2024-03-17T08:53:30;8.30;99.90
5304;DHT22;2674;49.722;10.892;2024-03-17T08:55:56;8.40;99.90
5304;DHT22;2674;49.722;10.892;2024-03-17T08:58:23;8.40;99.90
5304;DHT22;2674;49.722;10.892;2024-03-17T09:00:49;8.50;99.90
5304;DHT22;2674;49.722;10.892;2024-03-17T09:03:15;8.50;99.90
5304;DHT22;2674;49.722;10.892;2024-03-17T09:05:42;8.50;99.90
5304;DHT22;2674;49.722;10.892;2024-03-17T09:08:17;8.60;99.90
5304;DHT22;2674;49.722;10.892;2024-03-17T09:10:46;8.70;99.90
5304;DHT22;2674;49.722;10.892;2024-03-17T09:13:14;8.80;99.90
5304;DHT22;2674;49.722;10.892;2024-03-17T09:15:49;8.80;99.90
5304;DHT22;2674;49.722;10.892;2024-03-17T09:18:15;8.90;99.90
5304;DHT22;2674;49.722;10.892;2024-03-17T09:20:40;9.00;99.90
5304;DHT22;2674;49.722;10.892;2024-03-17T09:23:07;9.00;99.90
5304;DHT22;2674;49.722;10.892;2024-03-17T09:25:33;9.20;99.90
5304;DHT22;2674;49.722;10.892;2024-03-17T09:27:59;9.30;99.90
5304;DHT22;2674;49.722;10.892;2024-03-17T09:30:24;9.40;99.90
5304;DHT22;2674;49.722;10.892;2024-03-17T09:32:50;9.50;99.90
5304;DHT22;2674;49.722;10.892;2024-03-17T09:35:16;9.60;99.90
5304;DHT22;2674;49.722;10.892;2024-03-17T09:37:42;9.60;99.90
5304;DHT22;2674;49.722;10.892;2024-03-17T09:40:13;9.60;99.90
5304;DHT22;2674;49.722;10.892;2024-03-17T09:42:41;9.60;99.90
5304;DHT22;2674;49.722;10.892;2024-03-17T09:45:09;9.60;99.90
5304;DHT22;2674;49.722;10.892;2024-03-17T09:47:36;9.60;99.90
5304;DHT22;2674;49.722;10.892;2024-03-17T09:50:02;9.70;99.90
5304;DHT22;2674;49.722;10.892;2024-03-17T09:52:29;9.90;99.90
5304;DHT22;2674;49.722;10.892;2024-03-17T09:55:01;10.00;99.90
5304;DHT22;2674;49.722;10.892;2024-03-17T09:57:27;10.10;99.90
5304;DHT22;2674;49.722;10.892;2024-03-17T09:59:55;10.20;99.90
5304;DHT22;2674;49.722;10.892;2024-03-17T10:02:21;10.30;99.90
5304;DHT22;2674;49.722;10.892;2024-03-17T10:04:48;10.30;99.90
5304;DHT22;2674;49.722;10.892;2024-03-17T10:07:14;10.30;99.90
5304;DHT22;2674;49.722;10.892;2024-03-17T10:09:42;10.30;99.90
5304;DHT22;2674;49.722;10.892;2024-03-17T10:12:28;10.20;99.90
5304;DHT22;2674;49.722;10.892;2024-03-17T10:15:01;10.30;99.90
5304;DHT22;2674;49.722;10.892;2024-03-17T10:17:33;10.40;99.90
5304;DHT22;2674;49.722;10.892;2024-03-17T10:23:04;10.40;99.90
5304;DHT22;2674;49.722;10.892;2024-03-17T10:25:48;10.50;99.90
5304;DHT22;2674;49.722;10.892;2024-03-17T10:28:16;10.50;99.90
5304;DHT22;2674;49.722;10.892;2024-03-17T10:30:59;10.60;99.90
5304;DHT22;2674;49.722;10.892;2024-03-17T10:33:26;10.60;99.90
5304;DHT22;2674;49.722;10.892;2024-03-17T10:36:00;10.70;99.90
5304;DHT22;2674;49.722;10.892;2024-03-17T10:38:27;10.90;99.90
5304;DHT22;2674;49.722;10.892;2024-03-17T10:40:53;11.00;99.90
5304;DHT22;2674;49.722;10.892;2024-03-17T10:43:20;11.10;99.90
5304;DHT22;2674;49.722;10.892;2024-03-17T10:45:51;11.20;99.90
5304;DHT22;2674;49.722;10.892;2024-03-17T10:48:20;11.10;99.90
5304;DHT22;2674;49.722;10.892;2024-03-17T10:50:48;11.20;99.90
5304;DHT22;2674;49.722;10.892;2024-03-17T10:53:20;11.20;99.90
5304;DHT22;2674;49.722;10.892;2024-03-17T10:56:05;11.30;99.90
5304;DHT22;2674;49.722;10.892;2024-03-17T10:58:36;11.40;99.90
5304;DHT22;2674;49.722;10.892;2024-03-17T11:01:11;11.60;99.90
5304;DHT22;2674;49.722;10.892;2024-03-17T11:03:38;11.60;99.90
5304;DHT22;2674;49.722;10.892;2024-03-17T11:06:09;11.70;99.90
5304;DHT22;2674;49.722;10.892;2024-03-17T11:08:37;11.80;99.90
5304;DHT22;2674;49.722;10.892;2024-03-17T11:11:04;11.80;99.90
5304;DHT22;2674;49.722;10.892;2024-03-17T11:13:31;11.90;99.90
5304;DHT22;2674;49.722;10.892;2024-03-17T11:15:58;11.90;99.90
5304;DHT22;2674;49.722;10.892;2024-03-17T11:20:57;12.10;99.90
5304;DHT22;2674;49.722;10.892;2024-03-17T11:23:28;12.10;99.90
5304;DHT22;2674;49.722;10.892;2024-03-17T11:25:55;12.00;99.90
5304;DHT22;2674;49.722;10.892;2024-03-17T11:31:40;11.90;99.90
5304;DHT22;2674;49.722;10.892;2024-03-17T11:36:56;12.10;99.90
5304;DHT22;2674;49.722;10.892;2024-03-17T11:39:48;12.30;99.90
5304;DHT22;2674;49.722;10.892;2024-03-17T11:42:25;12.30;99.90
5304;DHT22;2674;49.722;10.892;2024-03-17T11:45:12;12.50;99.90
5304;DHT22;2674;49.722;10.892;2024-03-17T11:47:41;12.70;99.90
5304;DHT22;2674;49.722;10.892;2024-03-17T11:50:09;12.60;99.90
5304;DHT22;2674;49.722;10.892;2024-03-17T11:52:37;12.70;99.90
5304;DHT22;2674;49.722;10.892;2024-03-17T11:55:03;12.70;99.90
5304;DHT22;2674;49.722;10.892;2024-03-17T11:57:29;12.60;99.90
5304;DHT22;2674;49.722;10.892;2024-03-17T11:59:56;12.50;99.90
5304;DHT22;2674;49.722;10.892;2024-03-17T12:02:25;12.50;99.90
5304;DHT22;2674;49.722;10.892;2024-03-17T12:04:53;12.50;99.90
5304;DHT22;2674;49.722;10.892;2024-03-17T12:07:22;12.50;99.90
5304;DHT22;2674;49.722;10.892;2024-03-17T12:09:50;12.50;99.90
5304;DHT22;2674;49.722;10.892;2024-03-17T12:12:21;12.60;99.90
5304;DHT22;2674;49.722;10.892;2024-03-17T12:14:49;12.60;99.90
5304;DHT22;2674;49.722;10.892;2024-03-17T12:17:20;12.60;99.90
5304;DHT22;2674;49.722;10.892;2024-03-17T12:19:46;12.70;99.90
5304;DHT22;2674;49.722;10.892;2024-03-17T12:22:23;12.80;99.90
5304;DHT22;2674;49.722;10.892;2024-03-17T12:24:57;12.90;99.90
5304;DHT22;2674;49.722;10.892;2024-03-17T12:27:26;13.10;99.90
5304;DHT22;2674;49.722;10.892;2024-03-17T12:29:55;13.20;99.90
5304;DHT22;2674;49.722;10.892;2024-03-17T12:32:23;13.20;99.90
5304;DHT22;2674;49.722;10.892;2024-03-17T12:34:54;13.10;99.90
5304;DHT22;2674;49.722;10.892;2024-03-17T12:37:21;13.10;99.90
5304;DHT22;2674;49.722;10.892;2024-03-17T12:39:48;13.10;99.90
5304;DHT22;2674;49.722;10.892;2024-03-17T12:42:15;13.00;99.90
5304;DHT22;2674;49.722;10.892;2024-03-17T12:44:56;13.10;99.90
5304;DHT22;2674;49.722;10.892;2024-03-17T12:47:27;13.30;99.90
5304;DHT22;2674;49.722;10.892;2024-03-17T12:49:55;13.40;99.90
5304;DHT22;2674;49.722;10.892;2024-03-17T12:52:29;13.20;99.90
5304;DHT22;2674;49.722;10.892;2024-03-17T12:57:50;13.30;99.90
5304;DHT22;2674;49.722;10.892;2024-03-17T13:00:35;13.50;99.90
5304;DHT22;2674;49.722;10.892;2024-03-17T13:03:05;13.60;99.90
5304;DHT22;2674;49.722;10.892;2024-03-17T13:05:47;13.40;99.90
5304;DHT22;2674;49.722;10.892;2024-03-17T13:08:12;13.50;99.90
5304;DHT22;2674;49.722;10.892;2024-03-17T13:10:38;13.20;99.90
5304;DHT22;2674;49.722;10.892;2024-03-17T13:13:05;13.20;99.90
5304;DHT22;2674;49.722;10.892;2024-03-17T13:15:33;13.20;99.90
5304;DHT22;2674;49.722;10.892;2024-03-17T13:18:02;13.20;99.90
5304;DHT22;2674;49.722;10.892;2024-03-17T13:20:30;13.20;99.90
5304;DHT22;2674;49.722;10.892;2024-03-17T13:22:56;13.20;99.90
5304;DHT22;2674;49.722;10.892;2024-03-17T13:25:24;13.30;99.90
5304;DHT22;2674;49.722;10.892;2024-03-17T13:27:52;13.30;99.90
5304;DHT22;2674;49.722;10.892;2024-03-17T13:30:19;13.30;99.90
5304;DHT22;2674;49.722;10.892;2024-03-17T13:32:46;13.30;99.90
5304;DHT22;2674;49.722;10.892;2024-03-17T13:35:18;13.30;99.90
5304;DHT22;2674;49.722;10.892;2024-03-17T13:37:45;13.30;99.90
5304;DHT22;2674;49.722;10.892;2024-03-17T13:40:12;13.40;99.90
5304;DHT22;2674;49.722;10.892;2024-03-17T13:42:41;13.30;99.90
5304;DHT22;2674;49.722;10.892;2024-03-17T13:45:10;13.20;99.90
5304;DHT22;2674;49.722;10.892;2024-03-17T13:47:36;13.20;99.90
5304;DHT22;2674;49.722;10.892;2024-03-17T13:50:02;13.40;99.90
5304;DHT22;2674;49.722;10.892;2024-03-17T13:52:32;13.40;99.90
5304;DHT22;2674;49.722;10.892;2024-03-17T13:54:58;13.50;99.90
5304;DHT22;2674;49.722;10.892;2024-03-17T13:57:25;13.40;99.90
5304;DHT22;2674;49.722;10.892;2024-03-17T13:59:50;13.30;99.90
5304;DHT22;2674;49.722;10.892;2024-03-17T14:02:17;13.30;99.90
5304;DHT22;2674;49.722;10.892;2024-03-17T14:04:44;13.30;99.90
5304;DHT22;2674;49.722;10.892;2024-03-17T14:07:11;13.30;99.90
5304;DHT22;2674;49.722;10.892;2024-03-17T14:09:37;13.30;99.90
5304;DHT22;2674;49.722;10.892;2024-03-17T14:12:03;13.30;99.90
5304;DHT22;2674;49.722;10.892;2024-03-17T14:14:29;13.20;99.90
5304;DHT22;2674;49.722;10.892;2024-03-17T14:16:55;13.20;99.90
5304;DHT22;2674;49.722;10.892;2024-03-17T14:19:22;13.10;99.90
5304;DHT22;2674;49.722;10.892;2024-03-17T14:21:47;13.00;99.90
5304;DHT22;2674;49.722;10.892;2024-03-17T14:24:13;12.90;99.90
5304;DHT22;2674;49.722;10.892;2024-03-17T14:26:39;12.80;99.90
5304;DHT22;2674;49.722;10.892;2024-03-17T14:29:05;12.70;99.90
5304;DHT22;2674;49.722;10.892;2024-03-17T14:31:34;12.60;99.90
5304;DHT22;2674;49.722;10.892;2024-03-17T14:34:05;12.50;99.90
5304;DHT22;2674;49.722;10.892;2024-03-17T14:36:32;12.50;99.90
5304;DHT22;2674;49.722;10.892;2024-03-17T14:38:59;12.40;99.90
5304;DHT22;2674;49.722;10.892;2024-03-17T14:41:28;12.30;99.90
5304;DHT22;2674;49.722;10.892;2024-03-17T14:43:55;12.20;99.90
5304;DHT22;2674;49.722;10.892;2024-03-17T14:46:21;12.20;99.90
5304;DHT22;2674;49.722;10.892;2024-03-17T14:48:47;12.20;99.90
5304;DHT22;2674;49.722;10.892;2024-03-17T14:51:13;12.20;99.90
5304;DHT22;2674;49.722;10.892;2024-03-17T14:53:39;12.20;99.90
5304;DHT22;2674;49.722;10.892;2024-03-17T14:56:14;12.10;99.90
5304;DHT22;2674;49.722;10.892;2024-03-17T14:58:41;12.10;99.90
5304;DHT22;2674;49.722;10.892;2024-03-17T15:01:07;12.10;99.90
5304;DHT22;2674;49.722;10.892;2024-03-17T15:03:35;12.10;99.90
5304;DHT22;2674;49.722;10.892;2024-03-17T15:06:01;12.10;99.90
5304;DHT22;2674;49.722;10.892;2024-03-17T15:08:29;12.10;99.90
5304;DHT22;2674;49.722;10.892;2024-03-17T15:10:56;12.00;99.90
5304;DHT22;2674;49.722;10.892;2024-03-17T15:13:22;12.00;99.90
5304;DHT22;2674;49.722;10.892;2024-03-17T15:15:49;12.00;99.90
5304;DHT22;2674;49.722;10.892;2024-03-17T15:18:15;11.90;99.90
5304;DHT22;2674;49.722;10.892;2024-03-17T15:20:43;11.90;99.90
5304;DHT22;2674;49.722;10.892;2024-03-17T15:23:09;11.90;99.90
5304;DHT22;2674;49.722;10.892;2024-03-17T15:25:35;11.90;99.90
5304;DHT22;2674;49.722;10.892;2024-03-17T15:28:01;11.90;99.90
5304;DHT22;2674;49.722;10.892;2024-03-17T15:30:28;11.80;99.90
5304;DHT22;2674;49.722;10.892;2024-03-17T15:32:55;11.80;99.90
5304;DHT22;2674;49.722;10.892;2024-03-17T15:35:21;11.80;99.90
5304;DHT22;2674;49.722;10.892;2024-03-17T15:37:47;11.80;99.90
5304;DHT22;2674;49.722;10.892;2024-03-17T15:40:13;11.80;99.90
5304;DHT22;2674;49.722;10.892;2024-03-17T15:42:49;11.80;99.90
5304;DHT22;2674;49.722;10.892;2024-03-17T15:45:16;11.80;99.90
5304;DHT22;2674;49.722;10.892;2024-03-17T15:47:45;11.80;99.90
5304;DHT22;2674;49.722;10.892;2024-03-17T15:50:11;11.80;99.90
5304;DHT22;2674;49.722;10.892;2024-03-17T15:52:40;11.80;99.90
5304;DHT22;2674;49.722;10.892;2024-03-17T15:55:08;11.80;99.90
5304;DHT22;2674;49.722;10.892;2024-03-17T15:57:34;11.70;99.90
5304;DHT22;2674;49.722;10.892;2024-03-17T16:00:00;11.60;99.90
5304;DHT22;2674;49.722;10.892;2024-03-17T16:02:26;11.70;99.90
5304;DHT22;2674;49.722;10.892;2024-03-17T16:04:53;11.60;99.90
5304;DHT22;2674;49.722;10.892;2024-03-17T16:07:21;11.60;99.90
5304;DHT22;2674;49.722;10.892;2024-03-17T16:09:47;11.60;99.90
5304;DHT22;2674;49.722;10.892;2024-03-17T16:12:14;11.60;99.90